createdAt,value
2017-06-20T04:34:49.524Z,25.6
2017-06-20T04:35:29.027Z,26.6
2017-06-20T04:36:08.531Z,26.2
2017-06-20T04:36:48.035Z,25.0
2017-06-20T04:37:27.546Z,25.7
2017-06-20T04:38:07.726Z,25.9
2017-06-20T04:38:47.248Z,26.9
2017-06-20T04:39:26.758Z,26.9
2017-06-20T04:40:06.262Z,24.5
2017-06-20T04:40:45.769Z,23.8
2017-06-20T04:41:25.278Z,24.6
2017-06-20T04:42:04.792Z,26.4
2017-06-20T04:42:44.303Z,26.8
2017-06-20T04:43:23.814Z,25.2
2017-06-20T04:44:03.326Z,26.1
2017-06-20T04:44:42.829Z,26.9
2017-06-20T04:45:22.353Z,27.8
2017-06-20T04:46:01.873Z,26.8
2017-06-20T04:46:41.375Z,26.5
2017-06-20T04:47:20.887Z,26.7
2017-06-20T04:48:00.397Z,26.1
2017-06-20T04:48:39.911Z,25.7
2017-06-20T04:49:19.419Z,26.4
2017-06-20T04:49:58.928Z,26.8
2017-06-20T04:50:38.438Z,27.5
2017-06-20T04:51:18.005Z,27.4
2017-06-20T04:51:57.520Z,26.2
2017-06-20T04:52:37.055Z,26.6
2017-06-20T04:53:16.565Z,26.8
2017-06-20T04:53:56.072Z,28.6
2017-06-20T04:54:35.580Z,26.8
2017-06-20T04:55:15.101Z,27.3
2017-06-20T04:55:54.610Z,27.9
2017-06-20T04:56:34.119Z,28.6
2017-06-20T04:57:13.627Z,28.0
2017-06-20T04:57:53.153Z,26.8
2017-06-20T04:58:32.664Z,27.4
2017-06-20T04:59:12.175Z,27.9
2017-06-20T04:59:51.684Z,27.4
2017-06-20T05:00:31.202Z,26.1
2017-06-20T05:01:10.716Z,25.3
2017-06-20T05:01:50.229Z,26.8
2017-06-20T05:02:29.741Z,27.1
2017-06-20T05:03:09.249Z,27.9
2017-06-20T05:03:48.763Z,27.4
2017-06-20T05:04:28.271Z,27.6
2017-06-20T05:05:07.785Z,26.8
2017-06-20T05:05:47.300Z,27.0
2017-06-20T05:06:26.814Z,28.2
2017-06-20T05:07:06.329Z,28.1
2017-06-20T05:07:45.836Z,27.7
2017-06-20T05:08:25.347Z,28.1
2017-06-20T05:09:04.859Z,27.8
2017-06-20T05:09:44.369Z,28.5
2017-06-20T05:10:23.888Z,27.7
2017-06-20T05:11:03.400Z,26.6
2017-06-20T05:11:42.916Z,27.7
2017-06-20T05:12:22.420Z,27.3
2017-06-20T05:13:01.933Z,28.4
2017-06-20T05:13:41.441Z,28.2
2017-06-20T05:14:20.954Z,29.1
2017-06-20T05:15:00.466Z,29.8
2017-06-20T05:15:39.977Z,29.4
2017-06-20T05:16:19.500Z,29.4
2017-06-20T05:16:59.007Z,28.8
2017-06-20T05:17:38.521Z,29.8
2017-06-20T05:18:18.029Z,29.1
2017-06-20T05:18:57.543Z,29.9
2017-06-20T05:19:37.056Z,29.0
2017-06-20T05:20:16.568Z,28.3
2017-06-20T05:20:56.082Z,29.7
2017-06-20T05:21:35.594Z,29.5
2017-06-20T05:22:15.104Z,29.7
2017-06-20T05:22:54.632Z,28.7
2017-06-20T05:23:34.158Z,29.7
2017-06-20T05:24:13.660Z,30.6
2017-06-20T05:24:53.170Z,30.0
2017-06-20T05:25:32.682Z,29.1
